sensor_id;sensor_type;location;lat;lon;timestamp;P1;durP1;ratioP1;P2;durP2;ratioP2
17261;SDS011;9873;52.236;21.002;2022-09-17T00:03:57;4.67;;;2.67;;
17261;SDS011;9873;52.236;21.002;2022-09-17T00:14:06;4.30;;;2.30;;
17261;SDS011;9873;52.236;21.002;2022-09-17T00:24:12;4.30;;;2.37;;
17261;SDS011;9873;52.236;21.002;2022-09-17T00:34:17;3.40;;;2.57;;
17261;SDS011;9873;52.236;21.002;2022-09-17T00:54:51;3.47;;;2.23;;
17261;SDS011;9873;52.236;21.002;2022-09-17T01:04:57;3.87;;;2.37;;
17261;SDS011;9873;52.236;21.002;2022-09-17T01:25:30;2.07;;;1.87;;
17261;SDS011;9873;52.236;21.002;2022-09-17T01:35:54;2.73;;;2.13;;
17261;SDS011;9873;52.236;21.002;2022-09-17T01:46:12;4.27;;;2.20;;
17261;SDS011;9873;52.236;21.002;2022-09-17T01:56:18;3.20;;;2.30;;
17261;SDS011;9873;52.236;21.002;2022-09-17T02:06:28;3.20;;;2.43;;
17261;SDS011;9873;52.236;21.002;2022-09-17T02:16:36;3.87;;;1.97;;
17261;SDS011;9873;52.236;21.002;2022-09-17T02:26:57;5.57;;;2.00;;
17261;SDS011;9873;52.236;21.002;2022-09-17T02:37:04;2.73;;;1.60;;
17261;SDS011;9873;52.236;21.002;2022-09-17T03:07:41;3.87;;;2.17;;
17261;SDS011;9873;52.236;21.002;2022-09-17T03:17:45;3.30;;;2.20;;
17261;SDS011;9873;52.236;21.002;2022-09-17T03:27:53;7.13;;;2.50;;
17261;SDS011;9873;52.236;21.002;2022-09-17T03:37:56;5.07;;;2.10;;
17261;SDS011;9873;52.236;21.002;2022-09-17T03:47:58;2.93;;;2.47;;
17261;SDS011;9873;52.236;21.002;2022-09-17T03:58:00;3.43;;;2.03;;
17261;SDS011;9873;52.236;21.002;2022-09-17T04:08:04;3.97;;;2.13;;
17261;SDS011;9873;52.236;21.002;2022-09-17T04:18:10;4.37;;;2.47;;
17261;SDS011;9873;52.236;21.002;2022-09-17T04:28:13;5.43;;;2.53;;
17261;SDS011;9873;52.236;21.002;2022-09-17T04:38:17;3.60;;;2.53;;
17261;SDS011;9873;52.236;21.002;2022-09-17T04:48:25;2.83;;;2.10;;
17261;SDS011;9873;52.236;21.002;2022-09-17T04:58:29;3.53;;;2.43;;
17261;SDS011;9873;52.236;21.002;2022-09-17T05:08:34;6.70;;;4.13;;
17261;SDS011;9873;52.236;21.002;2022-09-17T05:18:41;4.47;;;2.37;;
17261;SDS011;9873;52.236;21.002;2022-09-17T05:28:47;3.67;;;2.33;;
17261;SDS011;9873;52.236;21.002;2022-09-17T05:38:51;2.20;;;2.00;;
17261;SDS011;9873;52.236;21.002;2022-09-17T05:48:55;2.92;;;2.40;;
17261;SDS011;9873;52.236;21.002;2022-09-17T05:59:00;5.25;;;2.10;;
17261;SDS011;9873;52.236;21.002;2022-09-17T06:09:05;3.90;;;1.83;;
17261;SDS011;9873;52.236;21.002;2022-09-17T06:19:10;2.55;;;1.30;;
17261;SDS011;9873;52.236;21.002;2022-09-17T06:29:12;4.25;;;1.30;;
17261;SDS011;9873;52.236;21.002;2022-09-17T06:39:17;4.38;;;1.50;;
17261;SDS011;9873;52.236;21.002;2022-09-17T06:49:22;2.50;;;1.58;;
17261;SDS011;9873;52.236;21.002;2022-09-17T06:59:24;5.53;;;1.73;;
17261;SDS011;9873;52.236;21.002;2022-09-17T07:09:27;2.83;;;1.40;;
17261;SDS011;9873;52.236;21.002;2022-09-17T07:19:29;5.20;;;2.10;;
17261;SDS011;9873;52.236;21.002;2022-09-17T07:29:35;4.05;;;1.77;;
17261;SDS011;9873;52.236;21.002;2022-09-17T07:39:42;4.47;;;2.33;;
17261;SDS011;9873;52.236;21.002;2022-09-17T07:49:44;5.20;;;2.53;;
17261;SDS011;9873;52.236;21.002;2022-09-17T07:59:50;7.88;;;3.50;;
17261;SDS011;9873;52.236;21.002;2022-09-17T08:09:54;3.00;;;2.53;;
17261;SDS011;9873;52.236;21.002;2022-09-17T08:20:01;6.33;;;2.53;;
17261;SDS011;9873;52.236;21.002;2022-09-17T08:30:04;5.50;;;2.47;;
17261;SDS011;9873;52.236;21.002;2022-09-17T08:40:15;4.60;;;2.33;;
17261;SDS011;9873;52.236;21.002;2022-09-17T09:00:41;2.80;;;1.90;;
17261;SDS011;9873;52.236;21.002;2022-09-17T09:10:57;2.20;;;1.60;;
17261;SDS011;9873;52.236;21.002;2022-09-17T09:31:46;3.78;;;2.28;;
17261;SDS011;9873;52.236;21.002;2022-09-17T09:42:28;2.60;;;1.60;;
17261;SDS011;9873;52.236;21.002;2022-09-17T10:03:15;3.87;;;1.90;;
17261;SDS011;9873;52.236;21.002;2022-09-17T10:13:26;2.67;;;1.90;;
17261;SDS011;9873;52.236;21.002;2022-09-17T10:23:39;1.47;;;1.27;;
17261;SDS011;9873;52.236;21.002;2022-09-17T10:33:51;4.20;;;1.60;;
17261;SDS011;9873;52.236;21.002;2022-09-17T10:43:58;13.03;;;3.07;;
17261;SDS011;9873;52.236;21.002;2022-09-17T10:54:35;3.30;;;1.30;;
17261;SDS011;9873;52.236;21.002;2022-09-17T11:05:00;2.65;;;1.67;;
17261;SDS011;9873;52.236;21.002;2022-09-17T11:25:54;2.20;;;1.60;;
17261;SDS011;9873;52.236;21.002;2022-09-17T11:36:03;1.77;;;1.57;;
17261;SDS011;9873;52.236;21.002;2022-09-17T11:46:21;2.75;;;1.92;;
17261;SDS011;9873;52.236;21.002;2022-09-17T11:56:30;2.13;;;1.52;;
17261;SDS011;9873;52.236;21.002;2022-09-17T12:06:37;2.38;;;1.70;;
17261;SDS011;9873;52.236;21.002;2022-09-17T12:16:43;4.40;;;1.88;;
17261;SDS011;9873;52.236;21.002;2022-09-17T12:37:59;2.72;;;1.23;;
17261;SDS011;9873;52.236;21.002;2022-09-17T12:58:16;2.80;;;1.60;;
17261;SDS011;9873;52.236;21.002;2022-09-17T13:08:46;3.03;;;2.05;;
17261;SDS011;9873;52.236;21.002;2022-09-17T13:39:46;2.53;;;1.40;;
17261;SDS011;9873;52.236;21.002;2022-09-17T13:49:53;3.15;;;1.85;;
17261;SDS011;9873;52.236;21.002;2022-09-17T13:59:58;4.38;;;1.80;;
17261;SDS011;9873;52.236;21.002;2022-09-17T14:10:26;3.17;;;2.35;;
17261;SDS011;9873;52.236;21.002;2022-09-17T14:20:36;3.20;;;2.20;;
17261;SDS011;9873;52.236;21.002;2022-09-17T14:30:38;3.05;;;2.28;;
17261;SDS011;9873;52.236;21.002;2022-09-17T14:40:57;3.08;;;2.38;;
17261;SDS011;9873;52.236;21.002;2022-09-17T14:51:10;2.90;;;2.47;;
17261;SDS011;9873;52.236;21.002;2022-09-17T15:01:24;3.17;;;2.50;;
17261;SDS011;9873;52.236;21.002;2022-09-17T15:11:33;2.80;;;2.22;;
17261;SDS011;9873;52.236;21.002;2022-09-17T15:31:45;6.60;;;3.75;;
17261;SDS011;9873;52.236;21.002;2022-09-17T15:41:57;4.53;;;3.33;;
17261;SDS011;9873;52.236;21.002;2022-09-17T15:52:36;4.82;;;3.80;;
17261;SDS011;9873;52.236;21.002;2022-09-17T16:02:36;4.38;;;3.75;;
17261;SDS011;9873;52.236;21.002;2022-09-17T16:12:38;4.40;;;3.90;;
17261;SDS011;9873;52.236;21.002;2022-09-17T16:22:43;6.63;;;4.22;;
17261;SDS011;9873;52.236;21.002;2022-09-17T16:32:50;5.53;;;4.43;;
17261;SDS011;9873;52.236;21.002;2022-09-17T16:43:00;7.80;;;5.27;;
17261;SDS011;9873;52.236;21.002;2022-09-17T16:53:07;6.33;;;4.80;;
17261;SDS011;9873;52.236;21.002;2022-09-17T17:03:13;5.53;;;4.47;;
17261;SDS011;9873;52.236;21.002;2022-09-17T17:13:19;7.63;;;4.27;;
17261;SDS011;9873;52.236;21.002;2022-09-17T17:23:21;7.50;;;4.90;;
17261;SDS011;9873;52.236;21.002;2022-09-17T17:33:23;6.90;;;4.83;;
17261;SDS011;9873;52.236;21.002;2022-09-17T17:43:25;7.77;;;5.07;;
17261;SDS011;9873;52.236;21.002;2022-09-17T17:53:28;9.37;;;6.07;;
17261;SDS011;9873;52.236;21.002;2022-09-17T18:03:33;8.60;;;5.53;;
17261;SDS011;9873;52.236;21.002;2022-09-17T18:13:40;9.40;;;5.90;;
17261;SDS011;9873;52.236;21.002;2022-09-17T18:23:47;9.67;;;6.93;;
17261;SDS011;9873;52.236;21.002;2022-09-17T18:33:59;9.80;;;7.00;;
17261;SDS011;9873;52.236;21.002;2022-09-17T18:44:03;12.23;;;7.20;;
17261;SDS011;9873;52.236;21.002;2022-09-17T18:54:11;12.10;;;7.90;;
17261;SDS011;9873;52.236;21.002;2022-09-17T19:04:13;13.77;;;8.90;;
17261;SDS011;9873;52.236;21.002;2022-09-17T19:14:21;14.03;;;9.97;;
17261;SDS011;9873;52.236;21.002;2022-09-17T19:24:23;13.97;;;12.03;;
17261;SDS011;9873;52.236;21.002;2022-09-17T19:34:28;13.27;;;9.83;;
17261;SDS011;9873;52.236;21.002;2022-09-17T19:44:33;16.67;;;9.53;;
17261;SDS011;9873;52.236;21.002;2022-09-17T19:54:35;14.37;;;9.33;;
17261;SDS011;9873;52.236;21.002;2022-09-17T20:04:37;14.83;;;10.23;;
17261;SDS011;9873;52.236;21.002;2022-09-17T20:14:42;14.17;;;9.83;;
17261;SDS011;9873;52.236;21.002;2022-09-17T20:24:47;13.67;;;10.70;;
17261;SDS011;9873;52.236;21.002;2022-09-17T20:34:51;15.57;;;10.50;;
17261;SDS011;9873;52.236;21.002;2022-09-17T20:44:54;14.13;;;9.07;;
17261;SDS011;9873;52.236;21.002;2022-09-17T20:54:56;16.57;;;9.47;;
17261;SDS011;9873;52.236;21.002;2022-09-17T21:05:01;13.57;;;8.57;;
17261;SDS011;9873;52.236;21.002;2022-09-17T21:15:05;11.13;;;7.30;;
17261;SDS011;9873;52.236;21.002;2022-09-17T21:25:08;10.30;;;7.57;;
17261;SDS011;9873;52.236;21.002;2022-09-17T21:35:10;9.87;;;6.60;;
17261;SDS011;9873;52.236;21.002;2022-09-17T21:45:20;9.97;;;6.60;;
17261;SDS011;9873;52.236;21.002;2022-09-17T21:55:22;10.93;;;6.27;;
17261;SDS011;9873;52.236;21.002;2022-09-17T22:05:25;8.27;;;6.47;;
17261;SDS011;9873;52.236;21.002;2022-09-17T22:15:27;9.53;;;6.60;;
17261;SDS011;9873;52.236;21.002;2022-09-17T22:25:29;8.37;;;6.53;;
17261;SDS011;9873;52.236;21.002;2022-09-17T22:35:34;9.07;;;6.00;;
17261;SDS011;9873;52.236;21.002;2022-09-17T22:45:40;11.17;;;7.57;;
17261;SDS011;9873;52.236;21.002;2022-09-17T22:55:54;9.53;;;6.53;;
17261;SDS011;9873;52.236;21.002;2022-09-17T23:05:57;9.40;;;6.10;;
17261;SDS011;9873;52.236;21.002;2022-09-17T23:16:06;9.77;;;6.63;;
17261;SDS011;9873;52.236;21.002;2022-09-17T23:26:10;8.50;;;5.83;;
17261;SDS011;9873;52.236;21.002;2022-09-17T23:36:18;9.87;;;5.93;;
17261;SDS011;9873;52.236;21.002;2022-09-17T23:46:25;8.30;;;5.40;;
17261;SDS011;9873;52.236;21.002;2022-09-17T23:56:32;11.17;;;5.30;;
